Penfield, Georgia
Current Conditions -  °F | °C
As of 9:55 AM on Wednesday 26 Nov 2014 (Local Time) from K3J7 Reporting Station
Clear Clear  
Wind Chill: 45°   Ceiling: Unl
Heat Index: 48°   Visibility: 10mi
Dew Point: 45°   Wind: 7mph
Humidity: 87%   Direction: 260°W
Pressure: 30.02"   Gusts: NA
Location:  33.6722°N, 83.1249°W
Report Text: K3J7 261455Z AUTO 26006KT 10SM CLR 09/07 A3002 RMK AO2
Loading
Personal Weather Stations






























Interactive Weather Map New forecast layout! Learn more

10-Day Weather Forecast

Advertisements
Track Severe Weather on mobile